createdAt,value
2022-10-15T00:02:58.200Z,31.85
2022-10-15T00:06:07.320Z,31.65
2022-10-15T00:09:20.560Z,32.07
2022-10-15T00:12:43.498Z,31.03
2022-10-15T00:16:03.382Z,31.08
2022-10-15T00:19:23.702Z,28.38
2022-10-15T00:22:27.524Z,28.92
2022-10-15T00:25:34.649Z,29.03
2022-10-15T00:28:56.131Z,29.30
2022-10-15T00:32:18.038Z,32.50
2022-10-15T00:35:39.035Z,29.92
2022-10-15T00:39:01.263Z,31.02
2022-10-15T00:42:25.737Z,29.17
2022-10-15T00:45:42.330Z,29.07
2022-10-15T00:49:14.067Z,31.75
2022-10-15T00:52:38.341Z,30.65
2022-10-15T00:55:48.243Z,31.02
2022-10-15T00:59:05.544Z,30.80
2022-10-15T01:02:25.715Z,29.93
2022-10-15T01:05:51.398Z,30.67
2022-10-15T01:08:54.342Z,30.70
2022-10-15T01:12:00.876Z,31.50
2022-10-15T01:15:15.859Z,33.40
2022-10-15T01:19:16.223Z,31.00
2022-10-15T01:23:05.374Z,31.50
2022-10-15T01:26:33.400Z,31.63
2022-10-15T01:30:11.572Z,32.60
2022-10-15T01:33:42.523Z,30.83
2022-10-15T01:37:19.189Z,29.47
2022-10-15T01:41:08.195Z,28.35
2022-10-15T01:44:52.165Z,28.30
2022-10-15T01:48:13.752Z,28.35
2022-10-15T01:51:34.189Z,29.23
2022-10-15T01:54:47.156Z,29.87
2022-10-15T01:57:59.247Z,30.25
2022-10-15T02:01:02.239Z,28.90
2022-10-15T02:04:24.760Z,29.73
2022-10-15T02:07:44.658Z,28.90
2022-10-15T02:10:58.996Z,28.87
2022-10-15T02:14:20.900Z,30.13
2022-10-15T02:18:22.164Z,30.15
2022-10-15T02:21:58.318Z,29.95
2022-10-15T02:25:29.594Z,30.27
2022-10-15T02:28:39.414Z,29.33
2022-10-15T02:31:54.560Z,29.95
2022-10-15T02:34:58.343Z,29.33
2022-10-15T02:38:08.074Z,29.77
2022-10-15T02:41:19.799Z,29.33
2022-10-15T02:44:41.837Z,29.27
2022-10-15T02:48:04.717Z,29.75
2022-10-15T02:51:21.229Z,27.85
2022-10-15T02:54:34.582Z,28.63
2022-10-15T02:57:50.052Z,27.20
2022-10-15T03:01:12.664Z,25.40
2022-10-15T03:04:22.525Z,26.63
2022-10-15T03:07:38.004Z,26.75
2022-10-15T03:10:50.684Z,29.20
2022-10-15T03:14:06.940Z,29.53
2022-10-15T03:17:10.423Z,28.30
2022-10-15T03:20:19.564Z,28.10
2022-10-15T03:26:52.168Z,28.55
2022-10-15T03:30:14.928Z,26.80
2022-10-15T03:33:36.792Z,26.73
2022-10-15T03:36:58.809Z,27.40
2022-10-15T03:40:19.811Z,26.15
2022-10-15T03:43:42.931Z,28.08
2022-10-15T03:47:05.899Z,27.53
2022-10-15T03:50:18.371Z,27.37
2022-10-15T03:53:41.861Z,27.35
2022-10-15T03:57:11.998Z,28.10
2022-10-15T04:00:35.353Z,27.67
2022-10-15T04:03:56.925Z,27.80
2022-10-15T04:07:18.923Z,26.53
2022-10-15T04:10:36.853Z,26.10
2022-10-15T04:14:02.900Z,26.40
2022-10-15T04:17:15.969Z,24.88
2022-10-15T04:20:21.237Z,25.83
2022-10-15T04:23:28.931Z,25.83
2022-10-15T04:26:55.081Z,24.80
2022-10-15T04:30:05.472Z,24.60
2022-10-15T04:33:21.715Z,25.13
2022-10-15T04:36:50.469Z,23.70
2022-10-15T04:40:15.399Z,26.03
2022-10-15T04:43:34.547Z,28.05
2022-10-15T04:46:48.618Z,27.85
2022-10-15T04:50:19.772Z,27.55
2022-10-15T04:53:42.319Z,26.50
2022-10-15T04:57:02.599Z,27.93
2022-10-15T05:00:07.107Z,26.08
2022-10-15T05:03:10.262Z,26.48
2022-10-15T05:06:28.579Z,27.27
2022-10-15T05:09:46.455Z,27.13
2022-10-15T05:12:56.634Z,26.80
2022-10-15T05:16:25.202Z,27.60
2022-10-15T05:19:28.100Z,28.70
2022-10-15T05:22:32.529Z,27.48
2022-10-15T05:25:53.163Z,28.13
2022-10-15T05:29:06.634Z,26.90
2022-10-15T05:32:12.377Z,27.33
2022-10-15T05:35:16.548Z,27.45
2022-10-15T05:38:36.355Z,26.75
2022-10-15T05:41:46.142Z,25.77
2022-10-15T05:45:02.914Z,26.40
2022-10-15T05:48:07.473Z,27.00
2022-10-15T05:51:15.683Z,26.88
2022-10-15T05:54:24.039Z,27.88
2022-10-15T05:57:26.948Z,27.97
2022-10-15T06:00:34.760Z,30.80
2022-10-15T06:04:00.525Z,28.95
2022-10-15T06:07:38.513Z,31.38
2022-10-15T06:11:16.577Z,28.70
2022-10-15T06:14:37.639Z,27.73
2022-10-15T06:17:43.064Z,27.87
2022-10-15T06:20:52.837Z,27.48
2022-10-15T06:23:56.772Z,28.40
2022-10-15T06:27:18.002Z,27.42
2022-10-15T06:30:40.494Z,26.57
2022-10-15T06:34:00.662Z,25.43
2022-10-15T06:37:16.427Z,27.50
2022-10-15T06:40:49.192Z,23.83
2022-10-15T06:44:02.646Z,20.77
2022-10-15T06:47:26.743Z,22.33
2022-10-15T06:50:50.241Z,22.07
2022-10-15T06:54:06.031Z,21.25
2022-10-15T06:57:34.424Z,21.23
2022-10-15T07:00:55.641Z,20.73
2022-10-15T07:04:15.480Z,22.20
2022-10-15T07:07:31.946Z,20.00
2022-10-15T07:10:41.005Z,20.60
2022-10-15T07:13:50.892Z,20.48
2022-10-15T07:17:00.714Z,20.70
2022-10-15T07:20:05.389Z,19.70
2022-10-15T07:23:08.471Z,19.30
2022-10-15T07:26:22.582Z,17.75
2022-10-15T07:29:37.449Z,18.60
2022-10-15T07:32:40.612Z,17.98
2022-10-15T07:35:59.553Z,17.57
2022-10-15T07:39:06.008Z,17.97
2022-10-15T07:42:16.750Z,17.85
2022-10-15T07:45:22.929Z,18.00
2022-10-15T07:48:26.837Z,20.50
2022-10-15T07:51:33.683Z,19.30
2022-10-15T07:54:54.233Z,18.70
2022-10-15T07:58:19.292Z,17.75
2022-10-15T08:01:41.293Z,17.73
2022-10-15T08:04:57.333Z,17.05
2022-10-15T08:08:11.087Z,18.00
2022-10-15T08:11:34.255Z,16.93
2022-10-15T08:15:10.278Z,17.67
2022-10-15T08:18:32.259Z,17.67
2022-10-15T08:21:53.162Z,17.35
2022-10-15T08:25:10.398Z,17.70
2022-10-15T08:28:13.563Z,17.07
2022-10-15T08:31:18.835Z,17.35
2022-10-15T08:34:33.787Z,17.77
2022-10-15T08:37:54.782Z,17.70
2022-10-15T08:41:18.796Z,17.07
2022-10-15T08:44:31.790Z,17.50
2022-10-15T08:47:57.163Z,16.77
2022-10-15T08:51:21.390Z,17.27
2022-10-15T08:54:35.603Z,16.60
2022-10-15T08:58:01.164Z,15.20
2022-10-15T09:01:44.056Z,15.43
2022-10-15T09:05:14.177Z,15.07
2022-10-15T09:08:27.969Z,12.45
2022-10-15T09:11:50.919Z,12.27
2022-10-15T09:15:00.484Z,12.50
2022-10-15T09:18:21.358Z,12.33
2022-10-15T09:21:43.717Z,12.07
2022-10-15T09:25:05.700Z,11.13
2022-10-15T09:28:20.038Z,11.20
2022-10-15T09:31:49.853Z,12.13
2022-10-15T09:35:19.195Z,11.70
2022-10-15T09:39:07.158Z,11.23
2022-10-15T09:42:14.333Z,11.02
2022-10-15T09:45:25.966Z,10.93
2022-10-15T09:48:42.726Z,10.80
2022-10-15T09:52:05.171Z,10.20
2022-10-15T09:55:36.901Z,9.73
2022-10-15T09:58:57.015Z,9.02
2022-10-15T10:02:20.280Z,9.65
2022-10-15T10:05:33.959Z,10.00
2022-10-15T10:09:00.060Z,10.20
2022-10-15T10:12:25.378Z,9.48
2022-10-15T10:15:39.940Z,9.57
2022-10-15T10:19:19.136Z,9.00
2022-10-15T10:22:27.495Z,9.60
2022-10-15T10:25:42.547Z,10.17
2022-10-15T10:29:15.860Z,9.60
2022-10-15T10:32:38.700Z,9.82
2022-10-15T10:35:50.840Z,8.82
2022-10-15T10:39:29.961Z,8.40
2022-10-15T10:42:39.885Z,7.77
2022-10-15T10:46:01.141Z,8.43
2022-10-15T10:49:32.810Z,8.27
2022-10-15T10:52:47.570Z,7.00
2022-10-15T10:56:11.973Z,7.27
2022-10-15T10:59:32.109Z,6.80
2022-10-15T11:02:51.932Z,7.22
2022-10-15T11:06:27.514Z,7.72
2022-10-15T11:09:50.052Z,7.03
2022-10-15T11:13:04.762Z,7.20
2022-10-15T11:16:16.289Z,6.40
2022-10-15T11:20:20.387Z,7.18
2022-10-15T11:23:35.506Z,6.25
2022-10-15T11:27:15.833Z,6.35
2022-10-15T11:30:47.530Z,6.47
2022-10-15T11:34:12.546Z,6.40
2022-10-15T11:38:03.733Z,6.15
2022-10-15T11:42:03.751Z,5.82
2022-10-15T11:45:26.601Z,6.18
2022-10-15T11:48:42.299Z,5.83
2022-10-15T11:52:29.774Z,5.80
2022-10-15T11:56:02.661Z,6.85
2022-10-15T11:59:37.890Z,6.22
2022-10-15T12:02:45.930Z,6.28
2022-10-15T12:06:06.459Z,6.23
2022-10-15T12:09:18.745Z,6.53
2022-10-15T12:12:58.592Z,6.80
2022-10-15T12:16:26.857Z,5.93
2022-10-15T12:19:56.977Z,6.38
2022-10-15T12:23:01.614Z,7.17
2022-10-15T12:26:33.519Z,6.60
2022-10-15T12:29:43.043Z,5.70
2022-10-15T12:32:59.684Z,5.63
2022-10-15T12:36:29.269Z,5.72
2022-10-15T12:39:52.844Z,5.80
2022-10-15T12:43:22.227Z,5.57
2022-10-15T12:46:39.372Z,5.38
2022-10-15T12:50:02.680Z,5.65
2022-10-15T12:53:32.773Z,5.90
2022-10-15T12:56:41.994Z,5.47
2022-10-15T13:00:06.566Z,5.63
2022-10-15T13:03:34.895Z,5.93
2022-10-15T13:06:48.695Z,5.90
2022-10-15T13:09:59.605Z,5.63
2022-10-15T13:13:24.597Z,5.37
2022-10-15T13:16:49.617Z,5.67
2022-10-15T13:20:17.709Z,5.50
2022-10-15T13:23:36.667Z,6.05
2022-10-15T13:26:54.525Z,5.40
2022-10-15T13:33:43.465Z,5.70
2022-10-15T13:37:05.573Z,5.05
2022-10-15T13:40:17.477Z,5.70
2022-10-15T13:43:27.448Z,5.68
2022-10-15T13:46:36.434Z,4.93
2022-10-15T13:49:50.509Z,5.63
2022-10-15T13:53:16.350Z,5.57
2022-10-15T13:56:33.324Z,6.90
2022-10-15T13:59:55.192Z,5.68
2022-10-15T14:03:22.608Z,5.43
2022-10-15T14:06:39.212Z,5.13
2022-10-15T14:09:55.463Z,5.40
2022-10-15T14:13:17.445Z,5.05
2022-10-15T14:16:39.542Z,5.63
2022-10-15T14:23:45.571Z,5.53
2022-10-15T14:26:49.451Z,4.97
2022-10-15T14:30:14.344Z,5.22
2022-10-15T14:33:38.151Z,5.40
2022-10-15T14:37:01.254Z,5.27
2022-10-15T14:40:22.386Z,5.47
2022-10-15T14:43:48.116Z,5.10
2022-10-15T14:47:07.344Z,5.35
2022-10-15T14:50:30.310Z,5.60
2022-10-15T14:53:53.278Z,5.43
2022-10-15T14:57:03.262Z,5.80
2022-10-15T15:00:24.274Z,5.18
2022-10-15T15:03:43.168Z,5.55
2022-10-15T15:06:59.358Z,6.03
2022-10-15T15:10:29.208Z,5.37
2022-10-15T15:14:04.577Z,5.00
2022-10-15T15:17:26.508Z,5.13
2022-10-15T15:20:49.474Z,4.90
2022-10-15T15:24:09.314Z,5.43
2022-10-15T15:27:33.367Z,5.53
2022-10-15T15:30:45.267Z,7.00
2022-10-15T15:34:08.277Z,5.53
2022-10-15T15:37:33.409Z,5.82
2022-10-15T15:40:54.244Z,6.13
2022-10-15T15:44:19.303Z,5.93
2022-10-15T15:47:39.298Z,6.00
2022-10-15T15:50:59.155Z,6.78
2022-10-15T15:54:22.167Z,6.15
2022-10-15T15:57:45.339Z,6.05
2022-10-15T16:01:08.212Z,6.07
2022-10-15T16:04:22.038Z,5.80
2022-10-15T16:07:45.118Z,5.95
2022-10-15T16:11:06.551Z,6.18
2022-10-15T16:14:11.084Z,6.05
2022-10-15T16:17:18.830Z,5.53
2022-10-15T16:20:48.426Z,5.83
2022-10-15T16:27:13.891Z,6.30
2022-10-15T16:30:23.695Z,6.47
2022-10-15T16:33:28.193Z,6.90
2022-10-15T16:36:44.366Z,6.00
2022-10-15T16:39:51.651Z,6.10
2022-10-15T16:43:05.140Z,6.70
2022-10-15T16:46:12.525Z,7.07
2022-10-15T16:49:19.461Z,8.60
2022-10-15T16:52:41.990Z,8.30
2022-10-15T16:55:52.876Z,7.97
2022-10-15T16:59:09.046Z,9.25
2022-10-15T17:02:44.996Z,10.32
2022-10-15T17:06:11.973Z,10.40
2022-10-15T17:09:32.913Z,8.67
2022-10-15T17:12:53.871Z,6.80
2022-10-15T17:16:24.017Z,6.60
2022-10-15T17:19:44.975Z,7.07
2022-10-15T17:23:02.127Z,6.80
2022-10-15T17:26:26.105Z,7.03
2022-10-15T17:29:35.622Z,6.95
2022-10-15T17:33:04.527Z,6.82
2022-10-15T17:36:32.902Z,7.13
2022-10-15T17:39:54.974Z,7.30
2022-10-15T17:42:58.271Z,7.50
2022-10-15T17:46:24.907Z,7.32
2022-10-15T17:50:00.891Z,7.13
2022-10-15T17:53:18.978Z,7.90
2022-10-15T17:56:43.907Z,7.17
2022-10-15T18:00:07.430Z,7.23
2022-10-15T18:03:32.937Z,7.28
2022-10-15T18:06:49.165Z,7.55
2022-10-15T18:10:10.922Z,8.50
2022-10-15T18:13:34.978Z,8.00
2022-10-15T18:16:52.253Z,7.80
2022-10-15T18:20:11.822Z,7.88
2022-10-15T18:23:33.974Z,8.25
2022-10-15T18:26:54.996Z,7.72
2022-10-15T18:30:13.541Z,8.30
2022-10-15T18:33:38.857Z,8.67
2022-10-15T18:36:57.207Z,8.45
2022-10-15T18:40:13.885Z,8.57
2022-10-15T18:43:32.789Z,8.95
2022-10-15T18:46:42.272Z,8.73
2022-10-15T18:49:49.100Z,9.00
2022-10-15T18:53:05.094Z,9.25
2022-10-15T18:56:20.740Z,8.30
2022-10-15T18:59:48.885Z,9.30
2022-10-15T19:03:08.734Z,8.43
2022-10-15T19:06:35.915Z,8.23
2022-10-15T19:09:43.036Z,8.02
2022-10-15T19:12:46.488Z,9.45
2022-10-15T19:15:49.528Z,8.95
2022-10-15T19:18:56.447Z,9.27
2022-10-15T19:22:00.111Z,8.90
2022-10-15T19:25:13.751Z,9.45
2022-10-15T19:28:33.705Z,9.88
2022-10-15T19:31:53.640Z,9.55
2022-10-15T19:35:16.757Z,9.00
2022-10-15T19:38:40.731Z,9.10
2022-10-15T19:42:01.555Z,8.30
2022-10-15T19:45:24.615Z,10.20
2022-10-15T19:48:48.615Z,12.52
2022-10-15T19:52:10.650Z,10.53
2022-10-15T19:55:35.544Z,9.27
2022-10-15T19:58:56.606Z,9.80
2022-10-15T20:02:17.576Z,10.10
2022-10-15T20:05:40.573Z,9.30
2022-10-15T20:09:02.580Z,11.37
2022-10-15T20:12:18.695Z,9.90
2022-10-15T20:15:45.547Z,9.52
2022-10-15T20:19:08.526Z,9.73
2022-10-15T20:22:29.552Z,9.88
2022-10-15T20:25:49.677Z,10.63
2022-10-15T20:29:09.668Z,9.90
2022-10-15T20:32:36.534Z,10.52
2022-10-15T20:35:50.590Z,10.15
2022-10-15T20:39:14.488Z,10.70
2022-10-15T20:42:40.656Z,9.87
2022-10-15T20:45:54.879Z,10.67
2022-10-15T20:49:17.488Z,11.55
2022-10-15T20:52:33.545Z,11.23
2022-10-15T20:55:53.670Z,10.68
2022-10-15T20:59:05.395Z,11.60
2022-10-15T21:02:12.725Z,11.93
2022-10-15T21:05:33.258Z,10.68
2022-10-15T21:08:56.506Z,10.90
2022-10-15T21:12:18.265Z,10.98
2022-10-15T21:15:39.319Z,10.30
2022-10-15T21:19:00.163Z,10.53
2022-10-15T21:22:22.154Z,10.60
2022-10-15T21:25:44.383Z,10.43
2022-10-15T21:29:10.283Z,10.35
2022-10-15T21:32:26.492Z,10.73
2022-10-15T21:35:47.343Z,10.07
2022-10-15T21:39:12.423Z,9.65
2022-10-15T21:42:15.399Z,9.55
2022-10-15T21:45:39.305Z,9.80
2022-10-15T21:49:15.307Z,9.37
2022-10-15T21:52:35.407Z,9.73
2022-10-15T21:56:03.327Z,9.20
2022-10-15T21:59:26.309Z,9.57
2022-10-15T22:02:52.335Z,9.30
2022-10-15T22:06:02.229Z,9.00
2022-10-15T22:09:05.083Z,9.63
2022-10-15T22:12:28.442Z,9.40
2022-10-15T22:15:35.498Z,9.35
2022-10-15T22:18:51.702Z,9.85
2022-10-15T22:22:07.634Z,9.97
2022-10-15T22:25:23.324Z,8.83
2022-10-15T22:28:53.296Z,8.27
2022-10-15T22:32:18.271Z,8.40
2022-10-15T22:35:43.754Z,8.50
2022-10-15T22:39:06.824Z,8.50
2022-10-15T22:42:29.287Z,8.43
2022-10-15T22:45:42.805Z,8.63
2022-10-15T22:49:00.170Z,8.70
2022-10-15T22:52:28.826Z,7.93
2022-10-15T22:55:59.712Z,8.47
2022-10-15T22:59:15.315Z,8.10
2022-10-15T23:02:42.337Z,8.00
2022-10-15T23:06:06.819Z,8.00
2022-10-15T23:09:27.901Z,7.90
2022-10-15T23:12:49.949Z,8.03
2022-10-15T23:16:12.939Z,7.40
2022-10-15T23:19:34.994Z,7.85
2022-10-15T23:22:56.903Z,8.15
2022-10-15T23:26:18.357Z,8.40
2022-10-15T23:29:27.990Z,8.27
2022-10-15T23:32:51.113Z,8.00
2022-10-15T23:36:26.975Z,7.68
2022-10-15T23:39:36.935Z,8.52
2022-10-15T23:42:54.721Z,8.25
2022-10-15T23:46:10.345Z,7.93
2022-10-15T23:49:39.132Z,8.70
2022-10-15T23:53:16.048Z,8.48
2022-10-15T23:56:26.939Z,9.10
2022-10-15T23:59:50.067Z,8.82
